AirNav   Pilot Hours Calculator
 
 757 users online  

52MI Six C's Heliport
Oakland Township, Michigan, USA

GOING TO OAKLAND TOWNSHIP?


FAA INFORMATION EFFECTIVE 02 JANUARY 2020

Location

FAA Identifier: 52MI
Lat/Long: 42-43-17.9600N 083-10-53.7100W
42-43.299333N 083-10.895167W
42.7216556,-83.1815861
(estimated)
Elevation: 1013 ft. / 309 m (estimated)
From city: 3 miles SE of OAKLAND TOWNSHIP, MI
Time zone: UTC -5 (UTC -4 during Daylight Saving Time)
Zip code: 48306

Heliport Operations

Heliport use: Private use. Permission required prior to landing
Activation date: 03/2014
Control tower: no
ARTCC: CLEVELAND CENTER
FSS: LANSING FLIGHT SERVICE STATION
Attendance: UNATNDD
Segmented circle: no

Heliport Communications

WX AWOS-3 at VLL (11 nm S): 119.475 (248-288-4649)
WX ASOS at PTK (11 nm W): 125.025 (248-886-8551)

Nearby radio navigation aids

VOR radial/distance  VOR name  Freq  Var
SVMr047/26.2SALEM VORTAC114.3003W
FNTr127/28.9FLINT VORTAC116.9006W
DXOr021/31.6DETROIT VOR/DME113.4006W
YQGr337/32.3WINDSOR VOR/DME113.8006W

 
NDB name  Hdg/Dist  Freq  Var  ID
GROSSE ILE005/37.341907WRYS .-. -.-- ...

Heliport Services

Runway Information

Helipad H1

Dimensions: 20 x 20 ft. / 6 x 6 m
Surface: turf
Traffic pattern: leftleft

Heliport Ownership and Management from official FAA records

Ownership: Privately-owned
Owner: AVA AVIATION LLC
5200 COVENTRY LANE
ROCHESTER, MI 48306
Phone 248-703-5699
Manager: CHRIS CUKROWSKI
5200 COVENTRY LANE
ROCHESTER, MI 48306
Phone 248-703-5699

Additional Remarks

FOR CD CTC DETROIT APCH AT 800-499-8181.

Instrument Procedures

There are no published instrument procedures at 52MI.

Some nearby airports with instrument procedures:

D98 - Romeo State Airport (10 nm NE)
KVLL - Oakland/Troy Airport (11 nm S)
KPTK - Oakland County International Airport (11 nm W)
57D - Ray Community Airport (13 nm E)
KMTC - Selfridge Air National Guard Base (17 nm SE)
 
Loc | Ops | Rwys | IFR | FBO | Links
Com | Nav | Svcs | Stats | Notes
Aerial photo
No photo
 
Airport distance calculator
Flying to Six C's Heliport? Find the distance to fly.

From to 52MI

Sunrise and sunset
Times for 21-Jan-2020
 Local
(UTC-5)
 Zulu
(UTC)
Morning civil twilight07:2712:27
Sunrise07:5812:58
Sunset17:3022:30
Evening civil twilight18:0123:01

Current date and time
Zulu (UTC)  21-Jan-2020 12:17:40
Local (UTC-5)  21-Jan-2020 07:17:40
 
METAR
KVLL 
11nm S 
211155Z AUTO 28004KT 10SM OVC027 M06/M11 A3058 RMK AO2 T10611111 11055 21061
KPTK 
11nm W 
211153Z 28005KT 10SM OVC024 M08/M12 A3053 RMK AO2 SLP355 BINOVC T10781122 11072 21094 51005 $
KMTC 
17nm E 
211156Z AUTO 30007KT 10SM OVC027 M07/M11 A3056 RMK AO2 SLP364 T10661112 11056 21066 53006 $
KDET 
21nm S 
211153Z 28008KT 10SM OVC028 M06/M12 A3058 RMK AO2 SLP366 T10611122 11056 21061 53008
KD95 
21nm N 
211155Z AUTO 25005KT 10SM OVC027 M07/M12 A3054 RMK AO2 T10701123 11067 21113
TAF
KPTK 
11nm W 
210714Z 2107/2206 30003KT P6SM OVC025 FM211200 28004KT P6SM SCT035 FM211900 25008KT P6SM OVC025 FM220000 20006KT P6SM SCT250
KMTC 
17nm E 
210900Z 2109/2215 VRB06KT 9999 BKN030 QNH3053INS BECMG 2114/2115 27009KT 9999 SCT030 QNH3038INS BECMG 2203/2204 21006KT 9999 FEW240 510202 QNH3031INS TXM02/2120Z TNM07/2111Z LAST NO AMDS AFT 2109 NEXT 2112
NOTAMs
Click for the latest NOTAMs
NOTAMs are issued by the DoD/FAA and will open in a separate window not controlled by AirNav.

 

 
 

Would you like to see your business listed on this page?

 If your business provides an interesting product or service to pilots, flight crews, aircraft, or users of the Six C's Heliport, you should consider listing it here.  To start the listing process, click on the button below
 
Add a business
 

Other Pages about Six C's Heliport

Update a link
 
Copyright © AirNav, LLC. All rights reserved. Privacy Policy  Contact